sensor_id;sensor_type;location;lat;lon;timestamp;P1;durP1;ratioP1;P2;durP2;ratioP2
52776;SDS011;38656;54.260;20.822;2023-06-05T00:02:02;13.15;;;7.38;;
52776;SDS011;38656;54.260;20.822;2023-06-05T00:04:28;11.40;;;6.72;;
52776;SDS011;38656;54.260;20.822;2023-06-05T00:06:54;8.65;;;6.50;;
52776;SDS011;38656;54.260;20.822;2023-06-05T00:09:22;10.30;;;7.13;;
52776;SDS011;38656;54.260;20.822;2023-06-05T00:11:48;9.77;;;6.82;;
52776;SDS011;38656;54.260;20.822;2023-06-05T00:14:15;10.95;;;6.60;;
52776;SDS011;38656;54.260;20.822;2023-06-05T00:16:41;9.10;;;6.22;;
52776;SDS011;38656;54.260;20.822;2023-06-05T00:19:07;9.13;;;5.60;;
52776;SDS011;38656;54.260;20.822;2023-06-05T00:21:33;8.55;;;6.90;;
52776;SDS011;38656;54.260;20.822;2023-06-05T00:24:00;9.48;;;6.38;;
52776;SDS011;38656;54.260;20.822;2023-06-05T00:26:28;11.18;;;7.03;;
52776;SDS011;38656;54.260;20.822;2023-06-05T00:28:54;8.10;;;6.07;;
52776;SDS011;38656;54.260;20.822;2023-06-05T00:31:20;8.40;;;6.85;;
52776;SDS011;38656;54.260;20.822;2023-06-05T00:33:48;12.57;;;6.45;;
52776;SDS011;38656;54.260;20.822;2023-06-05T00:36:15;7.68;;;5.93;;
52776;SDS011;38656;54.260;20.822;2023-06-05T00:38:43;7.35;;;5.97;;
52776;SDS011;38656;54.260;20.822;2023-06-05T00:41:10;8.00;;;5.35;;
52776;SDS011;38656;54.260;20.822;2023-06-05T00:43:36;5.95;;;5.35;;
52776;SDS011;38656;54.260;20.822;2023-06-05T00:46:03;8.88;;;4.93;;
52776;SDS011;38656;54.260;20.822;2023-06-05T00:48:30;10.60;;;5.10;;
52776;SDS011;38656;54.260;20.822;2023-06-05T00:50:58;5.28;;;4.78;;
52776;SDS011;38656;54.260;20.822;2023-06-05T00:53:24;5.75;;;4.82;;
52776;SDS011;38656;54.260;20.822;2023-06-05T00:55:52;7.32;;;4.65;;
52776;SDS011;38656;54.260;20.822;2023-06-05T00:58:19;5.72;;;4.30;;
52776;SDS011;38656;54.260;20.822;2023-06-05T01:00:45;5.03;;;4.43;;
52776;SDS011;38656;54.260;20.822;2023-06-05T01:03:14;6.50;;;4.63;;
52776;SDS011;38656;54.260;20.822;2023-06-05T01:05:42;5.40;;;4.65;;
52776;SDS011;38656;54.260;20.822;2023-06-05T01:08:08;5.80;;;4.40;;
52776;SDS011;38656;54.260;20.822;2023-06-05T01:10:37;7.68;;;5.45;;
52776;SDS011;38656;54.260;20.822;2023-06-05T01:13:05;5.80;;;4.32;;
52776;SDS011;38656;54.260;20.822;2023-06-05T01:15:40;8.77;;;4.97;;
52776;SDS011;38656;54.260;20.822;2023-06-05T01:18:06;6.97;;;4.53;;
52776;SDS011;38656;54.260;20.822;2023-06-05T01:20:38;8.93;;;4.35;;
52776;SDS011;38656;54.260;20.822;2023-06-05T01:23:10;4.75;;;4.20;;
52776;SDS011;38656;54.260;20.822;2023-06-05T01:25:36;5.78;;;4.70;;
52776;SDS011;38656;54.260;20.822;2023-06-05T01:28:19;6.90;;;5.03;;
52776;SDS011;38656;54.260;20.822;2023-06-05T01:36:09;7.32;;;3.90;;
52776;SDS011;38656;54.260;20.822;2023-06-05T01:38:37;7.10;;;4.47;;
52776;SDS011;38656;54.260;20.822;2023-06-05T01:41:05;9.30;;;3.97;;
52776;SDS011;38656;54.260;20.822;2023-06-05T01:43:33;11.38;;;5.00;;
52776;SDS011;38656;54.260;20.822;2023-06-05T01:46:00;6.93;;;4.55;;
52776;SDS011;38656;54.260;20.822;2023-06-05T01:48:27;8.93;;;4.55;;
52776;SDS011;38656;54.260;20.822;2023-06-05T01:50:55;5.70;;;5.03;;
52776;SDS011;38656;54.260;20.822;2023-06-05T01:53:24;5.30;;;4.55;;
52776;SDS011;38656;54.260;20.822;2023-06-05T01:55:52;6.75;;;5.13;;
52776;SDS011;38656;54.260;20.822;2023-06-05T01:58:22;6.38;;;5.05;;
52776;SDS011;38656;54.260;20.822;2023-06-05T02:00:49;5.95;;;4.68;;
52776;SDS011;38656;54.260;20.822;2023-06-05T02:03:17;7.72;;;4.85;;
52776;SDS011;38656;54.260;20.822;2023-06-05T02:05:44;6.63;;;4.43;;
52776;SDS011;38656;54.260;20.822;2023-06-05T02:08:11;8.20;;;5.45;;
52776;SDS011;38656;54.260;20.822;2023-06-05T02:10:38;5.72;;;4.57;;
52776;SDS011;38656;54.260;20.822;2023-06-05T02:13:08;9.45;;;4.95;;
52776;SDS011;38656;54.260;20.822;2023-06-05T02:15:35;8.02;;;5.20;;
52776;SDS011;38656;54.260;20.822;2023-06-05T02:18:01;6.60;;;4.38;;
52776;SDS011;38656;54.260;20.822;2023-06-05T02:20:29;8.32;;;4.32;;
52776;SDS011;38656;54.260;20.822;2023-06-05T02:22:57;5.78;;;4.18;;
52776;SDS011;38656;54.260;20.822;2023-06-05T02:25:23;5.63;;;3.78;;
52776;SDS011;38656;54.260;20.822;2023-06-05T02:27:53;4.90;;;4.15;;
52776;SDS011;38656;54.260;20.822;2023-06-05T02:30:20;5.70;;;3.45;;
52776;SDS011;38656;54.260;20.822;2023-06-05T02:32:47;5.85;;;4.32;;
52776;SDS011;38656;54.260;20.822;2023-06-05T02:37:47;5.00;;;4.28;;
52776;SDS011;38656;54.260;20.822;2023-06-05T02:40:14;5.07;;;3.80;;
52776;SDS011;38656;54.260;20.822;2023-06-05T02:42:40;5.90;;;3.92;;
52776;SDS011;38656;54.260;20.822;2023-06-05T02:45:07;14.95;;;3.88;;
52776;SDS011;38656;54.260;20.822;2023-06-05T02:47:34;3.50;;;3.13;;
52776;SDS011;38656;54.260;20.822;2023-06-05T02:50:00;4.40;;;3.53;;
52776;SDS011;38656;54.260;20.822;2023-06-05T02:52:27;6.22;;;3.70;;
52776;SDS011;38656;54.260;20.822;2023-06-05T02:54:54;4.20;;;3.80;;
52776;SDS011;38656;54.260;20.822;2023-06-05T02:57:20;4.40;;;3.42;;
52776;SDS011;38656;54.260;20.822;2023-06-05T02:59:47;6.25;;;4.38;;
52776;SDS011;38656;54.260;20.822;2023-06-05T03:02:14;6.18;;;4.20;;
52776;SDS011;38656;54.260;20.822;2023-06-05T03:04:40;4.28;;;3.85;;
52776;SDS011;38656;54.260;20.822;2023-06-05T03:07:08;10.52;;;6.30;;
52776;SDS011;38656;54.260;20.822;2023-06-05T03:09:35;4.82;;;4.15;;
52776;SDS011;38656;54.260;20.822;2023-06-05T03:12:02;13.88;;;10.10;;
52776;SDS011;38656;54.260;20.822;2023-06-05T03:14:28;10.60;;;8.45;;
52776;SDS011;38656;54.260;20.822;2023-06-05T03:16:57;9.80;;;5.93;;
52776;SDS011;38656;54.260;20.822;2023-06-05T03:19:25;8.40;;;4.40;;
52776;SDS011;38656;54.260;20.822;2023-06-05T03:21:52;3.95;;;3.25;;
52776;SDS011;38656;54.260;20.822;2023-06-05T03:24:18;4.68;;;3.47;;
52776;SDS011;38656;54.260;20.822;2023-06-05T03:26:45;6.97;;;4.15;;
52776;SDS011;38656;54.260;20.822;2023-06-05T03:29:11;11.15;;;3.75;;
52776;SDS011;38656;54.260;20.822;2023-06-05T03:31:37;5.55;;;3.70;;
52776;SDS011;38656;54.260;20.822;2023-06-05T03:34:03;5.65;;;4.63;;
52776;SDS011;38656;54.260;20.822;2023-06-05T03:36:31;6.80;;;3.83;;
52776;SDS011;38656;54.260;20.822;2023-06-05T03:38:59;6.50;;;4.57;;
52776;SDS011;38656;54.260;20.822;2023-06-05T03:41:26;5.40;;;3.58;;
52776;SDS011;38656;54.260;20.822;2023-06-05T03:43:52;5.65;;;4.22;;
52776;SDS011;38656;54.260;20.822;2023-06-05T03:46:18;5.28;;;3.70;;
52776;SDS011;38656;54.260;20.822;2023-06-05T03:48:45;4.57;;;3.72;;
52776;SDS011;38656;54.260;20.822;2023-06-05T03:51:11;5.40;;;3.97;;
52776;SDS011;38656;54.260;20.822;2023-06-05T03:53:38;5.07;;;4.07;;
52776;SDS011;38656;54.260;20.822;2023-06-05T03:56:05;6.15;;;3.60;;
52776;SDS011;38656;54.260;20.822;2023-06-05T03:58:32;4.93;;;3.90;;
52776;SDS011;38656;54.260;20.822;2023-06-05T04:00:58;7.00;;;4.25;;
52776;SDS011;38656;54.260;20.822;2023-06-05T04:03:25;7.97;;;4.30;;
52776;SDS011;38656;54.260;20.822;2023-06-05T04:05:52;6.40;;;4.63;;
52776;SDS011;38656;54.260;20.822;2023-06-05T04:08:18;6.63;;;4.07;;
52776;SDS011;38656;54.260;20.822;2023-06-05T04:10:45;8.80;;;4.72;;
52776;SDS011;38656;54.260;20.822;2023-06-05T04:13:11;7.43;;;4.50;;
52776;SDS011;38656;54.260;20.822;2023-06-05T04:15:37;8.48;;;4.97;;
52776;SDS011;38656;54.260;20.822;2023-06-05T04:18:03;5.93;;;5.07;;
52776;SDS011;38656;54.260;20.822;2023-06-05T04:20:29;8.35;;;5.53;;
52776;SDS011;38656;54.260;20.822;2023-06-05T04:22:56;7.68;;;5.60;;
52776;SDS011;38656;54.260;20.822;2023-06-05T04:25:22;8.50;;;5.13;;
52776;SDS011;38656;54.260;20.822;2023-06-05T04:27:50;12.23;;;5.35;;
52776;SDS011;38656;54.260;20.822;2023-06-05T04:30:16;9.98;;;4.95;;
52776;SDS011;38656;54.260;20.822;2023-06-05T04:32:43;14.80;;;5.97;;
52776;SDS011;38656;54.260;20.822;2023-06-05T04:35:18;8.38;;;5.38;;
52776;SDS011;38656;54.260;20.822;2023-06-05T04:37:44;8.02;;;4.50;;
52776;SDS011;38656;54.260;20.822;2023-06-05T04:40:11;13.65;;;5.32;;
52776;SDS011;38656;54.260;20.822;2023-06-05T04:42:37;9.60;;;5.80;;
52776;SDS011;38656;54.260;20.822;2023-06-05T04:45:04;22.08;;;14.98;;
52776;SDS011;38656;54.260;20.822;2023-06-05T04:47:33;8.65;;;6.97;;
52776;SDS011;38656;54.260;20.822;2023-06-05T04:50:00;8.43;;;6.05;;
52776;SDS011;38656;54.260;20.822;2023-06-05T04:52:28;6.43;;;5.30;;
52776;SDS011;38656;54.260;20.822;2023-06-05T04:54:57;12.73;;;5.35;;
52776;SDS011;38656;54.260;20.822;2023-06-05T04:57:26;6.78;;;4.70;;
52776;SDS011;38656;54.260;20.822;2023-06-05T04:59:53;9.95;;;4.70;;
52776;SDS011;38656;54.260;20.822;2023-06-05T05:02:20;8.35;;;4.55;;
52776;SDS011;38656;54.260;20.822;2023-06-05T05:04:46;5.95;;;4.30;;
52776;SDS011;38656;54.260;20.822;2023-06-05T05:07:12;7.57;;;4.05;;
52776;SDS011;38656;54.260;20.822;2023-06-05T05:09:44;6.03;;;3.42;;
52776;SDS011;38656;54.260;20.822;2023-06-05T05:12:10;3.90;;;2.97;;
52776;SDS011;38656;54.260;20.822;2023-06-05T05:14:37;11.73;;;2.97;;
52776;SDS011;38656;54.260;20.822;2023-06-05T05:17:05;8.32;;;3.22;;
52776;SDS011;38656;54.260;20.822;2023-06-05T05:19:31;7.07;;;2.97;;
52776;SDS011;38656;54.260;20.822;2023-06-05T05:21:58;3.97;;;2.53;;
52776;SDS011;38656;54.260;20.822;2023-06-05T05:24:24;3.80;;;2.50;;
52776;SDS011;38656;54.260;20.822;2023-06-05T05:26:51;3.35;;;2.38;;
52776;SDS011;38656;54.260;20.822;2023-06-05T05:29:17;3.92;;;2.47;;
52776;SDS011;38656;54.260;20.822;2023-06-05T05:31:44;4.35;;;2.78;;
52776;SDS011;38656;54.260;20.822;2023-06-05T05:34:10;7.00;;;3.33;;
52776;SDS011;38656;54.260;20.822;2023-06-05T05:36:37;4.43;;;2.40;;
52776;SDS011;38656;54.260;20.822;2023-06-05T05:41:30;5.90;;;2.55;;
52776;SDS011;38656;54.260;20.822;2023-06-05T05:43:56;8.70;;;2.25;;
52776;SDS011;38656;54.260;20.822;2023-06-05T05:46:22;5.40;;;1.88;;
52776;SDS011;38656;54.260;20.822;2023-06-05T05:48:48;3.20;;;1.98;;
52776;SDS011;38656;54.260;20.822;2023-06-05T05:51:14;4.85;;;1.98;;
52776;SDS011;38656;54.260;20.822;2023-06-05T05:53:40;1.67;;;1.42;;
52776;SDS011;38656;54.260;20.822;2023-06-05T05:56:07;1.63;;;1.52;;
52776;SDS011;38656;54.260;20.822;2023-06-05T05:58:33;3.60;;;1.40;;
52776;SDS011;38656;54.260;20.822;2023-06-05T06:00:59;7.18;;;1.75;;
52776;SDS011;38656;54.260;20.822;2023-06-05T06:03:25;2.40;;;1.52;;
52776;SDS011;38656;54.260;20.822;2023-06-05T06:05:52;2.58;;;1.80;;
52776;SDS011;38656;54.260;20.822;2023-06-05T06:08:18;2.35;;;1.65;;
52776;SDS011;38656;54.260;20.822;2023-06-05T06:10:45;4.75;;;1.75;;
52776;SDS011;38656;54.260;20.822;2023-06-05T06:13:12;1.65;;;1.50;;
52776;SDS011;38656;54.260;20.822;2023-06-05T06:15:38;22.00;;;3.95;;
52776;SDS011;38656;54.260;20.822;2023-06-05T06:18:07;1.58;;;1.48;;
52776;SDS011;38656;54.260;20.822;2023-06-05T06:20:33;3.72;;;1.48;;
52776;SDS011;38656;54.260;20.822;2023-06-05T06:23:00;3.72;;;1.85;;
52776;SDS011;38656;54.260;20.822;2023-06-05T06:25:27;3.90;;;2.00;;
52776;SDS011;38656;54.260;20.822;2023-06-05T06:27:56;2.13;;;1.80;;
52776;SDS011;38656;54.260;20.822;2023-06-05T06:30:25;1.55;;;1.38;;
52776;SDS011;38656;54.260;20.822;2023-06-05T06:32:52;4.38;;;1.77;;
52776;SDS011;38656;54.260;20.822;2023-06-05T06:35:25;4.90;;;2.00;;
52776;SDS011;38656;54.260;20.822;2023-06-05T06:37:54;1.73;;;1.40;;
52776;SDS011;38656;54.260;20.822;2023-06-05T06:40:21;2.88;;;1.60;;
52776;SDS011;38656;54.260;20.822;2023-06-05T06:42:48;5.47;;;2.17;;
52776;SDS011;38656;54.260;20.822;2023-06-05T06:45:15;4.00;;;1.80;;
52776;SDS011;38656;54.260;20.822;2023-06-05T06:47:42;2.00;;;1.55;;
52776;SDS011;38656;54.260;20.822;2023-06-05T06:50:08;2.50;;;1.58;;
52776;SDS011;38656;54.260;20.822;2023-06-05T06:52:35;4.63;;;1.73;;
52776;SDS011;38656;54.260;20.822;2023-06-05T06:55:01;4.25;;;1.67;;
52776;SDS011;38656;54.260;20.822;2023-06-05T06:57:27;3.55;;;1.90;;
52776;SDS011;38656;54.260;20.822;2023-06-05T06:59:54;4.53;;;1.85;;
52776;SDS011;38656;54.260;20.822;2023-06-05T07:02:20;3.28;;;1.80;;
52776;SDS011;38656;54.260;20.822;2023-06-05T07:04:48;4.95;;;1.92;;
52776;SDS011;38656;54.260;20.822;2023-06-05T07:07:15;3.88;;;2.00;;
52776;SDS011;38656;54.260;20.822;2023-06-05T07:09:42;2.83;;;1.52;;
52776;SDS011;38656;54.260;20.822;2023-06-05T07:12:10;2.17;;;1.17;;
52776;SDS011;38656;54.260;20.822;2023-06-05T07:14:37;5.07;;;1.33;;
52776;SDS011;38656;54.260;20.822;2023-06-05T07:17:04;2.55;;;1.45;;
52776;SDS011;38656;54.260;20.822;2023-06-05T07:19:31;2.00;;;1.42;;
52776;SDS011;38656;54.260;20.822;2023-06-05T07:21:58;2.25;;;1.27;;
52776;SDS011;38656;54.260;20.822;2023-06-05T07:24:27;1.85;;;1.25;;
52776;SDS011;38656;54.260;20.822;2023-06-05T07:26:54;2.85;;;1.20;;
52776;SDS011;38656;54.260;20.822;2023-06-05T07:29:22;32.35;;;2.97;;
52776;SDS011;38656;54.260;20.822;2023-06-05T07:31:49;6.72;;;1.70;;
52776;SDS011;38656;54.260;20.822;2023-06-05T07:34:19;9.95;;;5.55;;
52776;SDS011;38656;54.260;20.822;2023-06-05T07:36:46;3.03;;;1.60;;
52776;SDS011;38656;54.260;20.822;2023-06-05T07:39:15;1.20;;;1.10;;
52776;SDS011;38656;54.260;20.822;2023-06-05T07:41:42;3.33;;;1.30;;
52776;SDS011;38656;54.260;20.822;2023-06-05T07:44:12;1.15;;;1.00;;
52776;SDS011;38656;54.260;20.822;2023-06-05T07:46:41;1.92;;;1.20;;
52776;SDS011;38656;54.260;20.822;2023-06-05T07:49:08;1.80;;;1.25;;
52776;SDS011;38656;54.260;20.822;2023-06-05T07:51:34;6.80;;;1.52;;
52776;SDS011;38656;54.260;20.822;2023-06-05T07:54:09;1.85;;;1.08;;
52776;SDS011;38656;54.260;20.822;2023-06-05T07:56:37;2.85;;;1.63;;
52776;SDS011;38656;54.260;20.822;2023-06-05T07:59:04;2.92;;;1.13;;
52776;SDS011;38656;54.260;20.822;2023-06-05T08:01:32;1.35;;;0.90;;
52776;SDS011;38656;54.260;20.822;2023-06-05T08:04:05;1.35;;;1.13;;
52776;SDS011;38656;54.260;20.822;2023-06-05T08:06:32;53.10;;;4.32;;
52776;SDS011;38656;54.260;20.822;2023-06-05T08:09:03;3.72;;;1.40;;
52776;SDS011;38656;54.260;20.822;2023-06-05T08:11:29;14.95;;;2.42;;
52776;SDS011;38656;54.260;20.822;2023-06-05T08:13:56;2.78;;;1.05;;
52776;SDS011;38656;54.260;20.822;2023-06-05T08:16:22;3.15;;;1.20;;
52776;SDS011;38656;54.260;20.822;2023-06-05T08:18:48;2.83;;;1.23;;
52776;SDS011;38656;54.260;20.822;2023-06-05T08:21:14;0.90;;;0.85;;
52776;SDS011;38656;54.260;20.822;2023-06-05T08:23:41;2.80;;;1.20;;
52776;SDS011;38656;54.260;20.822;2023-06-05T08:26:08;1.58;;;1.02;;
52776;SDS011;38656;54.260;20.822;2023-06-05T08:28:40;1.10;;;0.98;;
52776;SDS011;38656;54.260;20.822;2023-06-05T08:31:09;2.33;;;1.17;;
52776;SDS011;38656;54.260;20.822;2023-06-05T08:33:36;1.70;;;0.85;;
52776;SDS011;38656;54.260;20.822;2023-06-05T08:36:04;2.05;;;0.70;;
52776;SDS011;38656;54.260;20.822;2023-06-05T08:38:31;4.25;;;1.42;;
52776;SDS011;38656;54.260;20.822;2023-06-05T08:41:02;1.88;;;1.40;;
52776;SDS011;38656;54.260;20.822;2023-06-05T08:43:35;3.40;;;0.88;;
52776;SDS011;38656;54.260;20.822;2023-06-05T08:46:03;2.55;;;1.17;;
52776;SDS011;38656;54.260;20.822;2023-06-05T08:48:31;1.98;;;0.80;;
52776;SDS011;38656;54.260;20.822;2023-06-05T08:51:02;5.72;;;1.65;;
52776;SDS011;38656;54.260;20.822;2023-06-05T08:53:31;1.25;;;1.08;;
52776;SDS011;38656;54.260;20.822;2023-06-05T08:56:01;2.83;;;1.00;;
52776;SDS011;38656;54.260;20.822;2023-06-05T08:58:27;1.50;;;1.10;;
52776;SDS011;38656;54.260;20.822;2023-06-05T09:00:54;3.17;;;1.23;;
52776;SDS011;38656;54.260;20.822;2023-06-05T09:03:21;1.98;;;0.80;;
52776;SDS011;38656;54.260;20.822;2023-06-05T09:05:47;1.73;;;1.05;;
52776;SDS011;38656;54.260;20.822;2023-06-05T09:08:14;4.65;;;1.00;;
52776;SDS011;38656;54.260;20.822;2023-06-05T09:10:41;2.75;;;1.30;;
52776;SDS011;38656;54.260;20.822;2023-06-05T09:13:07;1.38;;;1.05;;
52776;SDS011;38656;54.260;20.822;2023-06-05T09:15:35;3.85;;;1.10;;
52776;SDS011;38656;54.260;20.822;2023-06-05T09:18:02;1.52;;;0.93;;
52776;SDS011;38656;54.260;20.822;2023-06-05T09:20:30;2.42;;;1.17;;
52776;SDS011;38656;54.260;20.822;2023-06-05T09:23:03;1.77;;;1.05;;
52776;SDS011;38656;54.260;20.822;2023-06-05T09:25:45;2.42;;;1.10;;
52776;SDS011;38656;54.260;20.822;2023-06-05T09:28:16;1.02;;;0.90;;
52776;SDS011;38656;54.260;20.822;2023-06-05T09:31:24;1.25;;;0.80;;
52776;SDS011;38656;54.260;20.822;2023-06-05T09:33:32;1.88;;;1.25;;
52776;SDS011;38656;54.260;20.822;2023-06-05T09:38:31;2.30;;;1.00;;
52776;SDS011;38656;54.260;20.822;2023-06-05T09:41:02;1.77;;;1.33;;
52776;SDS011;38656;54.260;20.822;2023-06-05T09:43:29;1.20;;;0.93;;
52776;SDS011;38656;54.260;20.822;2023-06-05T09:45:56;1.88;;;0.98;;
52776;SDS011;38656;54.260;20.822;2023-06-05T09:48:22;3.85;;;1.27;;
52776;SDS011;38656;54.260;20.822;2023-06-05T09:50:50;4.55;;;1.02;;
52776;SDS011;38656;54.260;20.822;2023-06-05T09:53:17;3.58;;;1.33;;
52776;SDS011;38656;54.260;20.822;2023-06-05T09:55:46;1.33;;;1.08;;
52776;SDS011;38656;54.260;20.822;2023-06-05T09:58:13;1.38;;;1.02;;
52776;SDS011;38656;54.260;20.822;2023-06-05T10:00:41;1.58;;;0.93;;
52776;SDS011;38656;54.260;20.822;2023-06-05T10:03:14;1.42;;;1.00;;
52776;SDS011;38656;54.260;20.822;2023-06-05T10:05:43;1.00;;;0.85;;
52776;SDS011;38656;54.260;20.822;2023-06-05T10:08:11;1.30;;;0.85;;
52776;SDS011;38656;54.260;20.822;2023-06-05T10:10:41;2.05;;;1.40;;
52776;SDS011;38656;54.260;20.822;2023-06-05T10:13:07;2.05;;;0.90;;
52776;SDS011;38656;54.260;20.822;2023-06-05T10:15:35;2.95;;;1.10;;
52776;SDS011;38656;54.260;20.822;2023-06-05T10:18:03;2.10;;;1.17;;
52776;SDS011;38656;54.260;20.822;2023-06-05T10:20:30;2.45;;;1.20;;
52776;SDS011;38656;54.260;20.822;2023-06-05T10:22:59;2.10;;;1.15;;
52776;SDS011;38656;54.260;20.822;2023-06-05T10:25:26;1.02;;;0.93;;
52776;SDS011;38656;54.260;20.822;2023-06-05T10:31:09;1.35;;;1.20;;
52776;SDS011;38656;54.260;20.822;2023-06-05T10:34:02;1.27;;;1.10;;
52776;SDS011;38656;54.260;20.822;2023-06-05T10:39:13;1.90;;;1.42;;
52776;SDS011;38656;54.260;20.822;2023-06-05T10:41:40;1.70;;;1.13;;
52776;SDS011;38656;54.260;20.822;2023-06-05T10:44:06;2.80;;;1.42;;
52776;SDS011;38656;54.260;20.822;2023-06-05T10:46:33;3.53;;;1.20;;
52776;SDS011;38656;54.260;20.822;2023-06-05T10:51:43;2.78;;;1.10;;
52776;SDS011;38656;54.260;20.822;2023-06-05T10:54:14;2.08;;;1.13;;
52776;SDS011;38656;54.260;20.822;2023-06-05T11:07:25;8.98;;;1.77;;
52776;SDS011;38656;54.260;20.822;2023-06-05T11:15:06;4.13;;;1.13;;
52776;SDS011;38656;54.260;20.822;2023-06-05T11:20:07;2.58;;;1.50;;
52776;SDS011;38656;54.260;20.822;2023-06-05T11:28:01;5.88;;;2.08;;
52776;SDS011;38656;54.260;20.822;2023-06-05T11:30:31;7.90;;;2.75;;
52776;SDS011;38656;54.260;20.822;2023-06-05T11:33:11;5.88;;;1.42;;
52776;SDS011;38656;54.260;20.822;2023-06-05T11:35:38;1.95;;;1.30;;
52776;SDS011;38656;54.260;20.822;2023-06-05T11:40:40;5.15;;;1.60;;
52776;SDS011;38656;54.260;20.822;2023-06-05T11:43:08;2.88;;;1.30;;
52776;SDS011;38656;54.260;20.822;2023-06-05T11:45:39;2.67;;;1.60;;
52776;SDS011;38656;54.260;20.822;2023-06-05T11:48:10;2.78;;;1.60;;
52776;SDS011;38656;54.260;20.822;2023-06-05T11:50:39;4.38;;;1.88;;
52776;SDS011;38656;54.260;20.822;2023-06-05T11:53:16;2.15;;;1.60;;
52776;SDS011;38656;54.260;20.822;2023-06-05T11:55:43;5.45;;;1.80;;
52776;SDS011;38656;54.260;20.822;2023-06-05T11:58:24;3.03;;;1.92;;
52776;SDS011;38656;54.260;20.822;2023-06-05T12:01:04;3.15;;;1.55;;
52776;SDS011;38656;54.260;20.822;2023-06-05T12:03:33;1.50;;;0.95;;
52776;SDS011;38656;54.260;20.822;2023-06-05T12:06:00;1.77;;;1.33;;
52776;SDS011;38656;54.260;20.822;2023-06-05T12:08:28;3.45;;;1.27;;
52776;SDS011;38656;54.260;20.822;2023-06-05T12:11:02;2.75;;;1.10;;
52776;SDS011;38656;54.260;20.822;2023-06-05T12:13:51;2.42;;;1.60;;
52776;SDS011;38656;54.260;20.822;2023-06-05T12:16:18;2.15;;;1.58;;
52776;SDS011;38656;54.260;20.822;2023-06-05T12:18:54;1.95;;;1.75;;
52776;SDS011;38656;54.260;20.822;2023-06-05T12:21:24;1.77;;;1.30;;
52776;SDS011;38656;54.260;20.822;2023-06-05T12:23:51;2.05;;;1.50;;
52776;SDS011;38656;54.260;20.822;2023-06-05T12:26:26;5.00;;;1.92;;
52776;SDS011;38656;54.260;20.822;2023-06-05T12:29:03;1.73;;;1.40;;
52776;SDS011;38656;54.260;20.822;2023-06-05T12:31:31;3.75;;;1.95;;
52776;SDS011;38656;54.260;20.822;2023-06-05T12:33:59;2.20;;;1.42;;
52776;SDS011;38656;54.260;20.822;2023-06-05T12:36:27;4.07;;;2.80;;
52776;SDS011;38656;54.260;20.822;2023-06-05T12:38:54;4.80;;;2.75;;
52776;SDS011;38656;54.260;20.822;2023-06-05T12:41:21;8.05;;;2.22;;
52776;SDS011;38656;54.260;20.822;2023-06-05T12:43:57;4.93;;;1.73;;
52776;SDS011;38656;54.260;20.822;2023-06-05T12:46:25;1.75;;;1.60;;
52776;SDS011;38656;54.260;20.822;2023-06-05T12:48:53;6.13;;;2.15;;
52776;SDS011;38656;54.260;20.822;2023-06-05T12:51:19;1.33;;;1.20;;
52776;SDS011;38656;54.260;20.822;2023-06-05T12:53:45;1.92;;;1.63;;
52776;SDS011;38656;54.260;20.822;2023-06-05T12:56:11;2.38;;;2.10;;
52776;SDS011;38656;54.260;20.822;2023-06-05T12:58:38;3.28;;;1.77;;
52776;SDS011;38656;54.260;20.822;2023-06-05T13:01:04;3.33;;;1.90;;
52776;SDS011;38656;54.260;20.822;2023-06-05T13:03:30;3.55;;;1.58;;
52776;SDS011;38656;54.260;20.822;2023-06-05T13:05:58;2.80;;;2.00;;
52776;SDS011;38656;54.260;20.822;2023-06-05T13:08:24;2.30;;;1.80;;
52776;SDS011;38656;54.260;20.822;2023-06-05T13:10:50;4.07;;;1.95;;
52776;SDS011;38656;54.260;20.822;2023-06-05T13:13:16;1.70;;;1.60;;
52776;SDS011;38656;54.260;20.822;2023-06-05T13:15:44;2.65;;;2.03;;
52776;SDS011;38656;54.260;20.822;2023-06-05T13:18:11;2.17;;;1.70;;
52776;SDS011;38656;54.260;20.822;2023-06-05T13:20:37;2.42;;;1.50;;
52776;SDS011;38656;54.260;20.822;2023-06-05T13:23:03;2.47;;;1.77;;
52776;SDS011;38656;54.260;20.822;2023-06-05T13:25:31;2.95;;;1.88;;
52776;SDS011;38656;54.260;20.822;2023-06-05T13:27:58;2.67;;;1.55;;
52776;SDS011;38656;54.260;20.822;2023-06-05T13:30:24;5.35;;;1.58;;
52776;SDS011;38656;54.260;20.822;2023-06-05T13:32:51;2.83;;;1.98;;
52776;SDS011;38656;54.260;20.822;2023-06-05T13:35:19;2.78;;;1.70;;
52776;SDS011;38656;54.260;20.822;2023-06-05T13:37:46;3.38;;;2.10;;
52776;SDS011;38656;54.260;20.822;2023-06-05T13:40:14;3.10;;;2.75;;
52776;SDS011;38656;54.260;20.822;2023-06-05T13:42:41;4.43;;;2.85;;
52776;SDS011;38656;54.260;20.822;2023-06-05T13:45:07;5.55;;;4.28;;
52776;SDS011;38656;54.260;20.822;2023-06-05T13:47:34;5.65;;;2.13;;
52776;SDS011;38656;54.260;20.822;2023-06-05T13:50:01;2.10;;;1.70;;
52776;SDS011;38656;54.260;20.822;2023-06-05T13:52:28;4.28;;;2.70;;
52776;SDS011;38656;54.260;20.822;2023-06-05T13:54:55;7.00;;;4.78;;
52776;SDS011;38656;54.260;20.822;2023-06-05T13:57:22;5.55;;;3.15;;
52776;SDS011;38656;54.260;20.822;2023-06-05T13:59:48;8.57;;;7.28;;
52776;SDS011;38656;54.260;20.822;2023-06-05T14:02:14;7.80;;;4.70;;
52776;SDS011;38656;54.260;20.822;2023-06-05T14:04:40;10.00;;;8.98;;
52776;SDS011;38656;54.260;20.822;2023-06-05T14:07:06;5.22;;;2.75;;
52776;SDS011;38656;54.260;20.822;2023-06-05T14:09:33;3.97;;;3.00;;
52776;SDS011;38656;54.260;20.822;2023-06-05T14:11:59;3.28;;;2.08;;
52776;SDS011;38656;54.260;20.822;2023-06-05T14:14:26;4.47;;;2.60;;
52776;SDS011;38656;54.260;20.822;2023-06-05T14:16:54;6.18;;;2.97;;
52776;SDS011;38656;54.260;20.822;2023-06-05T14:19:20;3.53;;;3.20;;
52776;SDS011;38656;54.260;20.822;2023-06-05T14:21:46;4.50;;;3.38;;
52776;SDS011;38656;54.260;20.822;2023-06-05T14:24:12;6.65;;;2.92;;
52776;SDS011;38656;54.260;20.822;2023-06-05T14:26:39;3.40;;;2.45;;
52776;SDS011;38656;54.260;20.822;2023-06-05T14:29:05;4.03;;;2.60;;
52776;SDS011;38656;54.260;20.822;2023-06-05T14:31:32;3.05;;;2.13;;
52776;SDS011;38656;54.260;20.822;2023-06-05T14:33:58;2.97;;;2.67;;
52776;SDS011;38656;54.260;20.822;2023-06-05T14:36:24;5.47;;;2.55;;
52776;SDS011;38656;54.260;20.822;2023-06-05T14:38:51;2.65;;;2.40;;
52776;SDS011;38656;54.260;20.822;2023-06-05T14:41:17;5.70;;;3.20;;
52776;SDS011;38656;54.260;20.822;2023-06-05T14:43:43;5.45;;;2.40;;
52776;SDS011;38656;54.260;20.822;2023-06-05T14:46:10;4.38;;;2.35;;
52776;SDS011;38656;54.260;20.822;2023-06-05T14:48:36;5.55;;;2.85;;
52776;SDS011;38656;54.260;20.822;2023-06-05T14:51:03;7.30;;;4.03;;
52776;SDS011;38656;54.260;20.822;2023-06-05T14:53:29;4.43;;;2.90;;
52776;SDS011;38656;54.260;20.822;2023-06-05T14:55:57;5.30;;;3.10;;
52776;SDS011;38656;54.260;20.822;2023-06-05T14:58:23;13.52;;;6.30;;
52776;SDS011;38656;54.260;20.822;2023-06-05T15:00:50;6.90;;;5.65;;
52776;SDS011;38656;54.260;20.822;2023-06-05T15:03:16;5.53;;;3.88;;
52776;SDS011;38656;54.260;20.822;2023-06-05T15:05:44;6.95;;;5.93;;
52776;SDS011;38656;54.260;20.822;2023-06-05T15:08:10;7.25;;;3.88;;
52776;SDS011;38656;54.260;20.822;2023-06-05T15:10:36;3.20;;;2.90;;
52776;SDS011;38656;54.260;20.822;2023-06-05T15:13:02;4.95;;;4.07;;
52776;SDS011;38656;54.260;20.822;2023-06-05T15:15:29;5.20;;;3.53;;
52776;SDS011;38656;54.260;20.822;2023-06-05T15:17:56;4.95;;;4.10;;
52776;SDS011;38656;54.260;20.822;2023-06-05T15:20:22;5.25;;;2.92;;
52776;SDS011;38656;54.260;20.822;2023-06-05T15:22:48;5.40;;;3.85;;
52776;SDS011;38656;54.260;20.822;2023-06-05T15:25:17;7.40;;;3.72;;